Cohoes, NY (12047)

9:23 AM EDT on August 19, 2017 (GMT -0400)
Village of Waterford | | Change Station

Elev 43 ft 42.79 °N, 73.68 °W | Updated 3 minutes ago

Partly Cloudy
Partly Cloudy
82.4 °F
Feels Like 89 °F
N
1.0
Wind Variable Wind from South
Gusts 1.0 mph

Today
High -- | Low -- °F
--% Chance of Precip.
Yesterday
High -- | Low -- °F
Precip. -- in
Pressure 29.83 in
Visibility 10.0 miles
Clouds Few 3100 ft
Few 4300 ft
Few 26000 ft
Heat Index 89 °F
Dew Point 75 °F
Humidity 76%
Rainfall 0.00 in
Snow Depth Not available.
6:05 AM 7:50 PM
Waning Crescent, 7% visible
METAR KALB 191251Z VRB03KT 10SM FEW031 FEW043 FEW260 24/18 A2983 RMK AO2 SLP101 T02390183 $
Pressure 29.83 in
Visibility 10.0 miles
Clouds Few 3100 ft
Few 4300 ft
Few 26000 ft
Heat Index 89 °F
Dew Point 75 °F
Humidity 76%
Rainfall 0.00 in
Snow Depth Not available.
6:05 AM 7:50 PM
Waning Crescent, 7% visible
METAR KALB 191251Z VRB03KT 10SM FEW031 FEW043 FEW260 24/18 A2983 RMK AO2 SLP101 T02390183 $

Get Severe Weather Alerts

Thanks for signing up!

Be on the lookout for a verification email in your inbox.

You'll start receiving the daily forecast at 6 AM.

×

10-Day Weather Forecast

Almanac

Astronomy

Aug. 19, 2017 Rise Set
Actual Time
Civil Twilight
Nautical Twilight
Astronomical Twilight
Moon
Length of Visible Light
Length of Day
Tomorrow will be .
, % of the Moon is Illuminated

Today's Extremes

State Highs State Lows

Community

WunderPhotos

Category 6

Welcome to Category 6. This is the collective home for Weather Underground's featured writeups by Dr. Jeff Masters (right), Bob Henson (left), Chris Burt, and other regular contributors.

Nearby

Air Quality

  Air Quality AQ Index Pollutant
Not available.

Snow Depth

Station Depth Elevation

Earthquake Activity

City Distance Mag. Time & Date
Minimum magnitude displayed is 2.5.

Coastal Water Temperatures

Place Temperature

Stations

Nearby Weather Stations

Station Location Temp. Windchill Dew Point Humidity Wind Precip. Elev Updated Type
                   

Watches & Warnings

There are currently no watches in effect.